Time;durP1;ratioP1;P1;durP2;ratioP2;P2;SDS_P1;SDS_P2;PMS_P1;PMS_P2;Temp;Humidity;BMP_temperature;BMP_pressure;BME280_temperature;BME280_humidity;BME280_pressure;Samples;Min_cycle;Max_cycle;Signal;HPM_P1;HPM_P2
2022/09/26 19:36:41;;;;;;;;;;;;;;;11.24;69.36;98301.56;4990831;27;4391207;-89
2022/09/26 19:39:09;;;;;;;;;;;;;;;11.04;71.24;98303.25;5126161;28;2700;-91
2022/09/26 19:41:36;;;;;;;;;;;;;;;10.97;71.19;98305.47;5114449;28;1352;-91
2022/09/26 19:44:03;;;;;;;;;;;;;;;10.95;71.32;98302.22;5120178;28;1163;-90
2022/09/26 19:46:30;;;;;;;;;;;;;;;11.06;74.09;98303.78;5116126;28;1914;-90
2022/09/26 19:48:56;;;;;;;;;;;;;;;11.08;73.29;98303.50;5117096;28;2459;-89
2022/09/26 19:51:27;;;;;;;;;;;;;;;11.01;72.40;98303.81;5111958;28;1670;-92
2022/09/26 19:53:54;;;;;;;;;;;;;;;10.95;72.20;98302.22;5115472;28;1307;-89
2022/09/26 19:56:20;;;;;;;;;;;;;;;10.94;71.35;98305.97;5104728;27;2089;-91
2022/09/26 19:58:47;;;;;;;;;;;;;;;11.02;70.74;98304.63;5099428;28;2270;-91
2022/09/26 20:01:13;;;;;;;;;;;;;;;10.95;70.37;98304.13;5102901;28;1304;-91
2022/09/26 20:03:41;;;;;;;;;;;;;;;10.90;70.35;98304.94;5101661;28;1235;-92
2022/09/26 20:06:09;;;;;;;;;;;;;;;10.89;69.90;98304.13;5100195;28;1886;-90
2022/09/26 20:08:35;;;;;;;;;;;;;;;10.89;69.72;98304.13;5097964;28;1942;-90
2022/09/26 20:11:02;;;;;;;;;;;;;;;10.99;69.17;98307.84;5101251;28;1399;-91
2022/09/26 20:14:22;;;;;;;;;;;;;;;10.93;69.05;98309.78;5106445;28;1415;-91
2022/09/26 20:16:17;;;;;;;;;;;;;;;10.91;69.02;98312.75;5103256;28;1365;-90
2022/09/26 20:18:43;;;;;;;;;;;;;;;10.90;69.02;98304.94;5107043;28;1476;-92
2022/09/26 20:21:10;;;;;;;;;;;;;;;10.95;68.53;98318.38;5102863;28;1195;-92
2022/09/26 20:23:37;;;;;;;;;;;;;;;11.11;67.78;98319.09;5102334;28;2265;-91
2022/09/26 20:26:05;;;;;;;;;;;;;;;10.97;68.17;98315.41;5107451;28;1905;-91
2022/09/26 20:28:31;;;;;;;;;;;;;;;10.90;68.22;98313.81;5097629;28;1199;-91
2022/09/26 20:30:58;;;;;;;;;;;;;;;10.90;68.14;98321.09;5098035;28;1853;-90
2022/09/26 20:33:25;;;;;;;;;;;;;;;10.90;68.15;98318.41;5116577;28;1845;-90
2022/09/26 20:35:52;;;;;;;;;;;;;;;10.90;67.96;98311.13;5106262;28;1882;-91
2022/09/26 20:38:19;;;;;;;;;;;;;;;10.90;67.78;98318.41;5102303;28;1200;-92
2022/09/26 20:40:47;;;;;;;;;;;;;;;10.91;67.81;98314.63;5108051;28;1220;-91
2022/09/26 20:43:15;;;;;;;;;;;;;;;11.00;67.46;98310.28;5101879;28;1301;-91
2022/09/26 20:45:43;;;;;;;;;;;;;;;10.95;67.51;98314.91;5100902;28;1690;-90
2022/09/26 20:48:10;;;;;;;;;;;;;;;10.91;67.68;98311.94;5086932;28;1271;-90
2022/09/26 20:50:37;;;;;;;;;;;;;;;10.90;67.51;98313.81;5086468;28;1178;-91
2022/09/26 20:53:04;;;;;;;;;;;;;;;10.90;67.51;98310.31;5078665;28;1393;-91
2022/09/26 20:55:32;;;;;;;;;;;;;;;10.90;67.27;98315.72;5086885;28;1965;-91
2022/09/26 20:57:59;;;;;;;;;;;;;;;10.95;67.38;98310.31;5073036;28;1273;-91
2022/09/26 21:00:25;;;;;;;;;;;;;;;10.91;67.33;98315.44;5086549;28;1417;-90
2022/09/26 21:02:53;;;;;;;;;;;;;;;10.91;67.17;98317.31;5063786;28;1324;-89
2022/09/26 21:05:21;;;;;;;;;;;;;;;10.90;67.17;98313.81;5067613;28;1172;-90
2022/09/26 21:24:11;;;;;;;;;;;;;;;10.93;66.97;98319.75;5256245;22;2235;-95
2022/09/26 21:26:37;;;;;;;;;;;;;;;10.90;67.12;98324.59;5023139;28;1551;-95
2022/09/26 21:29:04;;;;;;;;;;;;;;;10.91;66.89;98333.47;5014511;28;1757;-94
2022/09/26 21:31:33;;;;;;;;;;;;;;;10.93;67.05;98319.75;5014306;28;1642;-95
2022/09/26 21:36:48;;;;;;;;;;;;;;;10.91;66.90;98320.00;5009749;28;1910;-94
2022/09/26 21:39:18;;;;;;;;;;;;;;;10.91;66.88;98331.59;5015502;28;1229;-95
2022/09/26 21:41:46;;;;;;;;;;;;;;;10.96;66.75;98335.34;5032449;28;1189;-95
2022/09/26 21:44:25;;;;;;;;;;;;;;;10.96;66.73;98330.75;5029609;28;1342;-94
2022/09/26 21:52:39;;;;;;;;;;;;;;;10.90;66.84;98331.88;5064971;22;1820;-95
2022/09/26 21:55:09;;;;;;;;;;;;;;;10.93;66.69;98327.81;5011983;28;1907;-95
2022/09/26 21:57:40;;;;;;;;;;;;;;;10.90;66.73;98329.19;4990846;28;1394;-95
2022/09/26 22:00:08;;;;;;;;;;;;;;;10.89;66.88;98327.56;4992121;28;1194;-94
2022/09/26 22:02:37;;;;;;;;;;;;;;;10.89;66.95;98331.06;4991532;28;1348;-94
2022/09/26 22:05:04;;;;;;;;;;;;;;;10.90;66.95;98331.88;4984727;28;1212;-94
2022/09/26 22:07:31;;;;;;;;;;;;;;;10.97;66.51;98331.56;5003884;28;2394;-94
2022/09/26 22:09:57;;;;;;;;;;;;;;;10.91;66.80;98326.22;5022466;28;1216;-95
2022/09/26 22:12:24;;;;;;;;;;;;;;;11.04;66.37;98332.09;5006856;28;1422;-93
2022/09/26 22:14:55;;;;;;;;;;;;;;;10.94;66.61;98332.91;4999343;28;1975;-94
2022/09/26 22:17:22;;;;;;;;;;;;;;;10.95;66.66;98329.16;5010699;28;1786;-94
2022/09/26 22:19:51;;;;;;;;;;;;;;;10.99;66.40;98334.78;5004784;28;1232;-94
2022/09/26 22:22:18;;;;;;;;;;;;;;;10.91;66.79;98328.09;4998065;28;1501;-94
2022/09/26 22:24:44;;;;;;;;;;;;;;;10.89;66.69;98331.06;5004091;28;1600;-94
2022/09/26 22:27:11;;;;;;;;;;;;;;;10.90;66.63;98335.34;5001038;28;1595;-94
2022/09/26 22:29:38;;;;;;;;;;;;;;;10.89;66.81;98336.44;5004002;28;1187;-93
2022/09/26 22:32:05;;;;;;;;;;;;;;;10.96;66.63;98332.66;5002648;28;1480;-94
2022/09/26 22:34:32;;;;;;;;;;;;;;;10.98;66.13;98331.31;5004290;28;1169;-93
2022/09/26 22:37:01;;;;;;;;;;;;;;;11.08;66.20;98325.06;5003466;28;1981;-95
2022/09/26 22:39:27;;;;;;;;;;;;;;;10.93;66.59;98334.00;5003633;28;1421;-94
2022/09/26 22:41:54;;;;;;;;;;;;;;;10.94;66.43;98332.13;5035874;28;1237;-93
2022/09/26 22:44:21;;;;;;;;;;;;;;;10.93;66.61;98334.00;5023113;28;1267;-94
2022/09/26 22:46:47;;;;;;;;;;;;;;;10.89;66.74;98331.06;5008743;28;1369;-93
2022/09/26 22:49:14;;;;;;;;;;;;;;;10.90;66.70;98329.19;4999490;28;1384;-94
2022/09/26 22:51:40;;;;;;;;;;;;;;;10.88;66.86;98337.53;5000513;28;1159;-93
2022/09/26 22:54:07;;;;;;;;;;;;;;;10.95;66.42;98331.84;4999162;28;1359;-93
2022/09/26 22:56:33;;;;;;;;;;;;;;;10.93;66.46;98325.13;5001115;28;1910;-93
2022/09/26 22:59:00;;;;;;;;;;;;;;;11.05;66.04;98325.59;5002397;28;1184;-94
2022/09/26 23:04:08;;;;;;;;;;;;;;;11.07;65.88;98326.94;5027123;28;1332;-95
2022/09/26 23:06:35;;;;;;;;;;;;;;;11.14;65.96;98324.75;5009754;28;1958;-96
2022/09/26 23:09:02;;;;;;;;;;;;;;;11.01;66.23;98322.66;5002664;28;2476;-95
2022/09/26 23:11:29;;;;;;;;;;;;;;;10.94;66.41;98324.84;5005220;28;2217;-94
2022/09/26 23:13:56;;;;;;;;;;;;;;;10.95;66.44;98323.78;5005554;28;2250;-95
2022/09/26 23:16:23;;;;;;;;;;;;;;;11.19;65.60;98323.13;4996316;28;1975;-94
2022/09/26 23:18:49;;;;;;;;;;;;;;;11.04;65.86;98322.13;5017796;28;2598;-94
2022/09/26 23:21:16;;;;;;;;;;;;;;;11.02;66.08;98323.47;5003647;28;2249;-94
2022/09/26 23:23:43;;;;;;;;;;;;;;;11.13;65.66;98323.13;5016952;28;2338;-94
2022/09/26 23:26:09;;;;;;;;;;;;;;;11.06;65.94;98311.88;5006692;28;1536;-94
2022/09/26 23:28:36;;;;;;;;;;;;;;;11.09;65.82;98319.41;5008336;28;1535;-94
2022/09/26 23:31:02;;;;;;;;;;;;;;;11.00;66.12;98325.63;5000207;28;2297;-94
2022/09/26 23:33:29;;;;;;;;;;;;;;;10.91;66.43;98326.22;5020540;28;1636;-94
2022/09/26 23:35:56;;;;;;;;;;;;;;;10.98;66.38;98333.19;5004339;28;1914;-92
2022/09/26 23:38:22;;;;;;;;;;;;;;;11.17;65.63;98331.47;5018987;28;1305;-94
2022/09/26 23:40:49;;;;;;;;;;;;;;;11.26;65.34;98324.41;5018108;28;1790;-94
2022/09/26 23:43:16;;;;;;;;;;;;;;;11.17;65.35;98327.97;5002534;28;1524;-94
2022/09/26 23:45:43;;;;;;;;;;;;;;;11.29;64.98;98325.75;5001790;28;2247;-94
2022/09/26 23:48:09;;;;;;;;;;;;;;;11.17;65.57;98331.47;5005389;28;1849;-95
2022/09/26 23:50:36;;;;;;;;;;;;;;;11.11;65.72;98332.56;5007795;28;1981;-95
2022/09/26 23:53:03;;;;;;;;;;;;;;;11.02;66.03;98324.28;5018149;28;2382;-94
2022/09/26 23:55:29;;;;;;;;;;;;;;;11.07;65.90;98326.16;5003760;28;1954;-94
2022/09/26 23:57:56;;;;;;;;;;;;;;;11.06;65.84;98336.13;5021737;28;2306;-94
